createdAt,value
2019-06-01T00:01:38.324Z,94.96
2019-06-01T00:04:09.810Z,97.03
2019-06-01T00:06:40.796Z,97.44
2019-06-01T00:09:12.560Z,98.22
2019-06-01T00:11:43.381Z,98.73
2019-06-01T00:14:14.407Z,99.39
2019-06-01T00:16:46.032Z,99.81
2019-06-01T00:19:16.955Z,98.69
2019-06-01T00:21:47.979Z,97.28
2019-06-01T00:24:18.899Z,96.11
2019-06-01T00:26:51.993Z,95.88
2019-06-01T00:29:22.819Z,95.61
2019-06-01T00:31:53.579Z,92.87
2019-06-01T00:34:24.263Z,92.17
2019-06-01T00:36:55.349Z,92.90
2019-06-01T00:39:26.146Z,94.14
2019-06-01T00:41:57.034Z,96.49
2019-06-01T00:44:27.691Z,96.86
2019-06-01T00:46:59.147Z,97.68
2019-06-01T00:49:29.710Z,96.55
2019-06-01T00:52:00.578Z,95.40
2019-06-01T00:54:31.532Z,93.50
2019-06-01T00:57:02.382Z,93.53
2019-06-01T00:59:33.387Z,93.27
2019-06-01T01:02:04.775Z,94.47
2019-06-01T01:04:35.626Z,97.36
2019-06-01T01:07:06.553Z,97.22
2019-06-01T01:09:37.661Z,98.20
2019-06-01T01:12:08.538Z,97.74
2019-06-01T01:14:39.283Z,97.46
2019-06-01T01:17:10.075Z,95.64
2019-06-01T01:19:40.811Z,98.29
2019-06-01T01:22:11.618Z,97.31
2019-06-01T01:24:42.594Z,94.31
2019-06-01T01:27:13.287Z,95.41
2019-06-01T01:29:44.113Z,96.18
2019-06-01T01:32:14.938Z,96.18
2019-06-01T01:34:45.672Z,96.02
2019-06-01T01:37:16.325Z,96.86
2019-06-01T01:39:48.034Z,96.73
2019-06-01T01:42:18.802Z,98.74
2019-06-01T01:44:50.502Z,97.85
2019-06-01T01:47:21.663Z,98.01
2019-06-01T01:49:52.323Z,97.92
2019-06-01T01:52:23.010Z,97.15
2019-06-01T01:54:54.733Z,96.92
2019-06-01T01:57:25.584Z,97.43
2019-06-01T01:59:57.398Z,98.78
2019-06-01T02:02:30.325Z,98.78
2019-06-01T02:05:02.179Z,99.36
2019-06-01T02:07:35.786Z,99.52
2019-06-01T02:10:08.889Z,100.00
2019-06-01T02:12:39.686Z,100.00
2019-06-01T02:15:10.502Z,100.00
2019-06-01T02:17:41.290Z,100.00
2019-06-01T02:20:12.492Z,99.37
2019-06-01T02:22:43.092Z,99.01
2019-06-01T02:25:13.975Z,99.22
2019-06-01T02:27:44.840Z,98.91
2019-06-01T02:30:17.199Z,99.05
2019-06-01T02:32:47.899Z,99.05
2019-06-01T02:35:18.532Z,99.67
2019-06-01T02:37:49.257Z,99.24
2019-06-01T02:40:20.527Z,99.41
2019-06-01T02:42:51.230Z,99.70
2019-06-01T02:45:22.624Z,99.22
2019-06-01T02:47:57.437Z,99.40
2019-06-01T02:50:28.633Z,100.00
2019-06-01T02:52:59.689Z,100.00
2019-06-01T02:55:30.377Z,100.00
2019-06-01T02:58:02.388Z,100.00
2019-06-01T03:00:48.217Z,100.00
2019-06-01T03:03:19.959Z,100.00
2019-06-01T03:05:53.644Z,100.00
2019-06-01T03:08:26.788Z,99.86
2019-06-01T03:10:59.692Z,99.44
2019-06-01T03:13:33.579Z,98.79
2019-06-01T03:16:08.918Z,99.95
2019-06-01T03:18:43.054Z,100.00
2019-06-01T03:21:16.777Z,100.00
2019-06-01T03:23:50.000Z,95.42
2019-06-01T03:26:23.688Z,93.34
2019-06-01T03:28:54.654Z,93.98
2019-06-01T03:31:25.326Z,94.43
2019-06-01T03:33:56.416Z,95.67
2019-06-01T03:36:27.211Z,96.33
2019-06-01T03:38:59.988Z,96.67
2019-06-01T03:41:32.133Z,95.79
2019-06-01T03:44:04.407Z,94.82
2019-06-01T03:46:35.289Z,95.68
2019-06-01T03:49:06.197Z,96.71
2019-06-01T03:51:37.503Z,96.86
2019-06-01T03:54:09.966Z,96.94
2019-06-01T03:56:41.310Z,96.12
2019-06-01T03:59:12.324Z,95.15
2019-06-01T04:01:47.060Z,94.41
2019-06-01T04:04:17.560Z,93.47
2019-06-01T04:06:49.147Z,92.07
2019-06-01T04:09:20.160Z,92.93
2019-06-01T04:11:50.976Z,92.63
2019-06-01T04:14:23.501Z,92.67
2019-06-01T04:16:54.921Z,93.08
2019-06-01T04:19:26.893Z,93.24
2019-06-01T04:21:57.796Z,94.33
2019-06-01T04:24:28.517Z,93.62
2019-06-01T04:26:59.338Z,93.24
2019-06-01T04:29:30.139Z,93.32
2019-06-01T04:32:02.402Z,92.52
2019-06-01T04:34:35.713Z,91.66
2019-06-01T04:37:07.049Z,91.44
2019-06-01T04:39:38.225Z,91.26
2019-06-01T04:42:09.778Z,91.15
2019-06-01T04:44:40.814Z,91.14
2019-06-01T04:47:12.569Z,90.99
2019-06-01T04:49:43.440Z,86.69
2019-06-01T04:52:15.224Z,88.31
2019-06-01T04:54:46.326Z,85.51
2019-06-01T04:57:17.278Z,86.09
2019-06-01T04:59:48.533Z,86.79
2019-06-01T05:02:19.600Z,84.88
2019-06-01T05:04:50.641Z,82.36
2019-06-01T05:07:21.433Z,86.48
2019-06-01T05:09:52.216Z,86.91
2019-06-01T05:12:23.148Z,86.74
2019-06-01T05:14:53.786Z,87.40
2019-06-01T05:17:24.566Z,84.40
2019-06-01T05:19:57.212Z,85.65
2019-06-01T05:22:28.231Z,85.30
2019-06-01T05:24:59.320Z,85.70
2019-06-01T05:27:30.200Z,83.07
2019-06-01T05:30:00.947Z,83.85
2019-06-01T05:32:32.084Z,82.77
2019-06-01T05:35:02.892Z,81.38
2019-06-01T05:37:34.087Z,79.74
2019-06-01T05:40:10.481Z,77.67
2019-06-01T05:42:42.161Z,79.59
2019-06-01T05:45:13.583Z,78.03
2019-06-01T05:47:44.337Z,77.91
2019-06-01T05:50:18.865Z,76.57
2019-06-01T05:52:49.795Z,76.41
2019-06-01T05:55:20.882Z,74.13
2019-06-01T05:57:51.881Z,72.91
2019-06-01T06:00:31.747Z,72.86
2019-06-01T06:03:03.500Z,73.33
2019-06-01T06:05:35.195Z,72.91
2019-06-01T06:08:06.822Z,71.98
2019-06-01T06:10:37.524Z,71.70
2019-06-01T06:13:08.265Z,73.05
2019-06-01T06:15:39.023Z,72.22
2019-06-01T06:18:10.131Z,69.49
2019-06-01T06:20:40.859Z,69.46
2019-06-01T06:23:12.215Z,70.17
2019-06-01T06:25:43.134Z,66.66
2019-06-01T06:28:14.607Z,68.31
2019-06-01T06:30:45.502Z,67.30
2019-06-01T06:33:17.356Z,66.65
2019-06-01T06:35:48.958Z,66.57
2019-06-01T06:38:20.020Z,65.92
2019-06-01T06:40:53.207Z,63.90
2019-06-01T06:43:32.431Z,60.59
2019-06-01T06:45:56.457Z,60.37
2019-06-01T06:48:27.208Z,62.97
2019-06-01T06:50:58.373Z,61.71
2019-06-01T06:53:34.984Z,63.57
2019-06-01T06:56:01.859Z,62.56
2019-06-01T06:58:32.621Z,62.79
2019-06-01T07:01:05.147Z,65.85
2019-06-01T07:03:36.198Z,61.63
2019-06-01T07:06:07.983Z,55.02
2019-06-01T07:08:38.931Z,53.68
2019-06-01T07:11:11.869Z,47.61
2019-06-01T07:13:42.738Z,44.07
2019-06-01T07:16:15.879Z,45.95
2019-06-01T07:18:46.453Z,41.96
2019-06-01T07:21:24.072Z,41.58
2019-06-01T07:23:55.543Z,41.29
2019-06-01T07:26:26.368Z,39.97
2019-06-01T07:28:58.730Z,41.40
2019-06-01T07:31:29.959Z,38.53
2019-06-01T07:34:02.208Z,40.01
2019-06-01T07:36:37.622Z,40.44
2019-06-01T07:39:08.784Z,37.48
2019-06-01T07:41:41.786Z,37.71
2019-06-01T07:44:12.894Z,36.46
2019-06-01T07:46:44.317Z,35.91
2019-06-01T07:49:15.232Z,32.72
2019-06-01T07:51:46.780Z,34.73
2019-06-01T07:54:18.279Z,34.20
2019-06-01T07:56:49.431Z,35.30
2019-06-01T07:59:21.326Z,33.01
2019-06-01T08:01:53.473Z,36.41
2019-06-01T08:04:26.672Z,36.87
2019-06-01T08:06:57.394Z,36.34
2019-06-01T08:09:29.589Z,35.35
2019-06-01T08:12:00.949Z,34.86
2019-06-01T08:14:32.875Z,36.20
2019-06-01T08:17:03.869Z,36.27
2019-06-01T08:19:53.194Z,35.01
2019-06-01T08:22:24.138Z,36.71
2019-06-01T08:24:54.947Z,36.45
2019-06-01T08:27:26.498Z,36.08
2019-06-01T08:29:57.418Z,32.02
2019-06-01T08:32:28.727Z,32.01
2019-06-01T08:35:08.676Z,32.55
2019-06-01T08:37:33.625Z,33.31
2019-06-01T08:40:07.687Z,31.62
2019-06-01T08:42:39.144Z,31.96
2019-06-01T08:45:10.662Z,31.85
2019-06-01T08:47:41.545Z,31.87
2019-06-01T08:50:12.892Z,32.25
2019-06-01T08:52:43.662Z,30.52
2019-06-01T08:55:15.278Z,30.79
2019-06-01T08:57:46.302Z,30.98
2019-06-01T09:00:17.825Z,29.44
2019-06-01T09:02:49.393Z,28.93
2019-06-01T09:05:24.277Z,28.63
2019-06-01T09:07:54.144Z,29.22
2019-06-01T09:10:25.296Z,30.63
2019-06-01T09:12:58.004Z,29.70
2019-06-01T09:15:29.738Z,29.21
2019-06-01T09:18:00.794Z,28.18
2019-06-01T09:20:35.869Z,29.17
2019-06-01T09:23:05.443Z,29.68
2019-06-01T09:25:36.219Z,30.24
2019-06-01T09:28:07.495Z,27.40
2019-06-01T09:30:38.814Z,29.58
2019-06-01T09:33:10.098Z,29.61
2019-06-01T09:35:54.356Z,31.44
2019-06-01T09:38:15.408Z,30.85
2019-06-01T09:40:46.574Z,32.57
2019-06-01T09:43:17.487Z,32.29
2019-06-01T09:45:52.771Z,33.59
2019-06-01T09:48:22.049Z,33.38
2019-06-01T09:50:53.144Z,32.57
2019-06-01T09:53:24.353Z,32.57
2019-06-01T09:55:55.415Z,33.29
2019-06-01T09:58:28.233Z,35.09
2019-06-01T10:00:59.376Z,35.91
2019-06-01T10:03:32.302Z,34.69
2019-06-01T10:06:04.420Z,36.15
2019-06-01T10:08:36.120Z,33.76
2019-06-01T10:11:07.481Z,35.45
2019-06-01T10:13:38.811Z,35.57
2019-06-01T10:16:10.353Z,37.65
2019-06-01T10:18:43.016Z,38.44
2019-06-01T10:21:14.111Z,39.37
2019-06-01T10:23:49.020Z,38.41
2019-06-01T10:26:18.088Z,39.43
2019-06-01T10:28:51.076Z,37.92
2019-06-01T10:31:22.275Z,38.03
2019-06-01T10:33:53.406Z,38.51
2019-06-01T10:36:24.662Z,39.66
2019-06-01T10:38:56.636Z,40.99
2019-06-01T10:41:27.935Z,42.67
2019-06-01T10:43:58.819Z,43.75
2019-06-01T10:46:29.836Z,43.65
2019-06-01T10:49:00.680Z,44.45
2019-06-01T10:51:32.096Z,43.82
2019-06-01T10:54:03.174Z,44.87
2019-06-01T10:56:34.371Z,44.87
2019-06-01T10:59:06.113Z,44.88
2019-06-01T11:01:37.854Z,44.51
2019-06-01T11:04:09.413Z,44.36
2019-06-01T11:06:44.914Z,45.65
2019-06-01T11:09:14.076Z,45.38
2019-06-01T11:11:44.877Z,44.74
2019-06-01T11:14:17.236Z,43.75
2019-06-01T11:16:55.767Z,45.07
2019-06-01T11:19:21.380Z,40.90
2019-06-01T11:21:52.585Z,36.49
2019-06-01T11:24:25.570Z,35.64
2019-06-01T11:26:56.761Z,39.09
2019-06-01T11:29:28.127Z,36.81
2019-06-01T11:31:58.946Z,38.74
2019-06-01T11:34:29.962Z,40.33
2019-06-01T11:37:05.402Z,39.37
2019-06-01T11:39:34.265Z,34.90
2019-06-01T11:42:05.433Z,33.19
2019-06-01T11:44:36.631Z,33.54
2019-06-01T11:47:07.237Z,34.65
2019-06-01T11:49:38.672Z,36.51
2019-06-01T11:52:09.694Z,32.22
2019-06-01T11:54:41.211Z,30.98
2019-06-01T11:57:12.537Z,33.54
2019-06-01T11:59:43.648Z,31.26
2019-06-01T12:02:14.448Z,32.38
2019-06-01T12:04:46.374Z,33.09
2019-06-01T12:07:18.747Z,34.52
2019-06-01T12:09:50.707Z,34.70
2019-06-01T12:12:21.735Z,34.25
2019-06-01T12:14:53.781Z,32.00
2019-06-01T12:17:24.890Z,30.32
2019-06-01T12:19:55.768Z,31.64
2019-06-01T12:22:26.916Z,31.15
2019-06-01T12:24:57.632Z,31.60
2019-06-01T12:27:29.926Z,32.54
2019-06-01T12:30:00.495Z,30.64
2019-06-01T12:32:32.935Z,30.69
2019-06-01T12:35:05.562Z,32.33
2019-06-01T12:37:56.074Z,32.80
2019-06-01T12:40:10.615Z,31.58
2019-06-01T12:42:41.642Z,32.06
2019-06-01T12:45:23.064Z,30.63
2019-06-01T12:47:57.715Z,31.06
2019-06-01T12:50:25.508Z,31.65
2019-06-01T12:52:57.225Z,31.94
2019-06-01T12:55:29.176Z,32.73
2019-06-01T12:57:59.906Z,31.36
2019-06-01T13:00:30.637Z,30.22
2019-06-01T13:03:07.546Z,31.20
2019-06-01T13:05:34.251Z,32.38
2019-06-01T13:08:05.625Z,32.17
2019-06-01T13:10:37.876Z,30.35
2019-06-01T13:13:08.832Z,32.08
2019-06-01T13:15:41.131Z,34.23
2019-06-01T13:18:13.432Z,33.57
2019-06-01T13:20:45.433Z,33.20
2019-06-01T13:23:16.265Z,31.71
2019-06-01T13:25:47.665Z,30.47
2019-06-01T13:28:18.745Z,30.41
2019-06-01T13:30:50.983Z,29.55
2019-06-01T13:33:22.386Z,29.78
2019-06-01T13:35:53.266Z,30.51
2019-06-01T13:38:24.753Z,28.24
2019-06-01T13:40:55.631Z,29.50
2019-06-01T13:43:26.555Z,30.62
2019-06-01T13:45:57.929Z,32.84
2019-06-01T13:48:29.114Z,34.38
2019-06-01T13:51:00.004Z,32.33
2019-06-01T13:53:31.093Z,31.38
2019-06-01T13:56:02.172Z,32.83
2019-06-01T13:58:33.613Z,33.72
2019-06-01T14:01:04.986Z,35.43
2019-06-01T14:03:36.649Z,32.17
2019-06-01T14:06:08.214Z,32.95
2019-06-01T14:08:39.996Z,30.70
2019-06-01T14:11:11.907Z,32.22
2019-06-01T14:13:43.736Z,33.37
2019-06-01T14:16:15.395Z,36.35
2019-06-01T14:18:47.647Z,36.67
2019-06-01T14:21:19.376Z,33.85
2019-06-01T14:23:51.959Z,31.19
2019-06-01T14:26:22.987Z,31.57
2019-06-01T14:28:54.176Z,30.10
2019-06-01T14:31:25.446Z,30.43
2019-06-01T14:33:56.844Z,31.70
2019-06-01T14:36:28.154Z,30.38
2019-06-01T14:38:59.398Z,30.30
2019-06-01T14:41:30.356Z,27.34
2019-06-01T14:44:04.735Z,27.46
2019-06-01T14:46:52.422Z,28.15
2019-06-01T14:49:08.924Z,27.05
2019-06-01T14:51:40.924Z,27.59
2019-06-01T14:54:11.772Z,26.42
2019-06-01T14:56:43.351Z,25.08
2019-06-01T14:59:14.399Z,27.11
2019-06-01T15:01:45.683Z,25.28
2019-06-01T15:04:18.386Z,26.02
2019-06-01T15:06:50.212Z,26.97
2019-06-01T15:09:22.490Z,26.04
2019-06-01T15:11:54.533Z,25.98
2019-06-01T15:14:25.234Z,25.78
2019-06-01T15:16:56.248Z,25.29
2019-06-01T15:19:27.114Z,25.93
2019-06-01T15:21:58.349Z,26.80
2019-06-01T15:24:30.506Z,26.56
2019-06-01T15:27:01.322Z,27.55
2019-06-01T15:29:32.369Z,27.83
2019-06-01T15:32:03.882Z,29.45
2019-06-01T15:34:35.307Z,27.29
2019-06-01T15:37:07.215Z,26.99
2019-06-01T15:39:37.952Z,27.02
2019-06-01T15:42:09.050Z,26.91
2019-06-01T15:44:40.194Z,26.32
2019-06-01T15:47:11.513Z,26.25
2019-06-01T15:49:42.835Z,26.98
2019-06-01T15:52:13.732Z,25.89
2019-06-01T15:54:45.240Z,26.80
2019-06-01T15:57:16.685Z,27.77
2019-06-01T15:59:48.854Z,26.02
2019-06-01T16:02:23.038Z,25.65
2019-06-01T16:05:01.291Z,25.69
2019-06-01T16:07:34.944Z,26.30
2019-06-01T16:10:12.178Z,25.85
2019-06-01T16:15:42.104Z,27.14
2019-06-01T16:18:13.309Z,26.90
2019-06-01T16:20:44.813Z,27.19
2019-06-01T16:23:15.802Z,25.83
2019-06-01T16:25:57.407Z,27.75
2019-06-01T16:28:19.956Z,27.31
2019-06-01T16:30:51.149Z,26.77
2019-06-01T16:33:22.518Z,26.50
2019-06-01T16:35:54.914Z,27.59
2019-06-01T16:38:26.594Z,27.06
2019-06-01T16:40:57.575Z,28.85
2019-06-01T16:43:29.211Z,28.74
2019-06-01T16:46:02.113Z,27.26
2019-06-01T16:48:33.088Z,28.62
2019-06-01T16:51:05.902Z,28.08
2019-06-01T16:53:37.610Z,27.69
2019-06-01T16:56:09.056Z,28.80
2019-06-01T16:58:39.910Z,28.90
2019-06-01T17:01:11.823Z,28.86
2019-06-01T17:03:42.902Z,30.55
2019-06-01T17:06:15.381Z,30.66
2019-06-01T17:08:47.624Z,31.25
2019-06-01T17:11:21.070Z,31.06
2019-06-01T17:13:53.017Z,30.50
2019-06-01T17:16:24.152Z,31.63
2019-06-01T17:18:55.377Z,30.19
2019-06-01T17:21:26.782Z,29.67
2019-06-01T17:23:57.763Z,30.38
2019-06-01T17:26:29.110Z,30.30
2019-06-01T17:29:02.010Z,30.83
2019-06-01T17:31:35.398Z,31.59
2019-06-01T17:34:08.632Z,31.62
2019-06-01T17:36:41.390Z,32.00
2019-06-01T17:39:12.835Z,31.26
2019-06-01T17:41:45.586Z,32.19
2019-06-01T17:44:18.638Z,32.59
2019-06-01T17:46:53.938Z,32.55
2019-06-01T17:49:23.968Z,33.01
2019-06-01T17:51:54.974Z,32.63
2019-06-01T17:54:27.250Z,33.27
2019-06-01T17:56:59.070Z,32.74
2019-06-01T17:59:30.530Z,33.17
2019-06-01T18:02:01.900Z,34.93
2019-06-01T18:04:34.901Z,34.55
2019-06-01T18:07:08.028Z,34.58
2019-06-01T18:09:39.316Z,35.90
2019-06-01T18:12:10.695Z,39.75
2019-06-01T18:14:42.641Z,38.57
2019-06-01T18:17:13.711Z,41.38
2019-06-01T18:19:46.158Z,42.18
2019-06-01T18:22:17.302Z,43.25
2019-06-01T18:24:48.221Z,44.30
2019-06-01T18:27:19.655Z,44.16
2019-06-01T18:29:50.520Z,44.19
2019-06-01T18:32:22.572Z,43.84
2019-06-01T18:34:53.777Z,46.83
2019-06-01T18:37:25.873Z,47.13
2019-06-01T18:39:57.017Z,50.56
2019-06-01T18:42:30.023Z,49.78
2019-06-01T18:45:03.476Z,48.87
2019-06-01T18:47:34.599Z,52.14
2019-06-01T18:50:10.010Z,50.22
2019-06-01T18:52:42.223Z,51.79
2019-06-01T18:55:14.799Z,52.82
2019-06-01T18:57:48.625Z,52.11
2019-06-01T19:00:19.797Z,53.68
2019-06-01T19:02:51.672Z,54.00
2019-06-01T19:05:22.661Z,54.67
2019-06-01T19:07:53.541Z,55.08
2019-06-01T19:10:24.680Z,55.24
2019-06-01T19:12:55.942Z,57.02
2019-06-01T19:15:28.919Z,58.02
2019-06-01T19:17:59.877Z,58.29
2019-06-01T19:20:33.160Z,56.95
2019-06-01T19:23:06.520Z,58.52
2019-06-01T19:25:37.371Z,60.22
2019-06-01T19:28:08.858Z,59.80
2019-06-01T19:30:42.136Z,60.49
2019-06-01T19:33:15.507Z,59.70
2019-06-01T19:35:45.813Z,62.15
2019-06-01T19:38:19.541Z,63.58
2019-06-01T19:40:50.975Z,64.00
2019-06-01T19:43:22.307Z,64.58
2019-06-01T19:45:53.410Z,65.98
2019-06-01T19:48:24.592Z,67.49
2019-06-01T19:50:55.682Z,68.51
2019-06-01T19:53:26.795Z,69.00
2019-06-01T19:55:58.502Z,69.27
2019-06-01T19:58:29.686Z,70.14
2019-06-01T20:01:00.726Z,70.20
2019-06-01T20:03:31.827Z,70.62
2019-06-01T20:06:02.479Z,70.84
2019-06-01T20:08:33.326Z,69.78
2019-06-01T20:11:04.534Z,70.06
2019-06-01T20:13:37.464Z,69.31
2019-06-01T20:16:10.746Z,69.84
2019-06-01T20:18:42.394Z,71.61
2019-06-01T20:21:16.018Z,72.62
2019-06-01T20:23:47.307Z,73.20
2019-06-01T20:26:19.395Z,70.07
2019-06-01T20:28:51.040Z,72.81
2019-06-01T20:31:22.339Z,75.21
2019-06-01T20:33:56.472Z,76.27
2019-06-01T20:36:27.367Z,73.56
2019-06-01T20:39:04.073Z,76.93
2019-06-01T20:41:32.994Z,76.70
2019-06-01T20:44:06.035Z,76.99
2019-06-01T20:46:37.564Z,75.19
2019-06-01T20:49:08.729Z,75.31
2019-06-01T20:51:39.878Z,77.38
2019-06-01T20:54:11.273Z,79.76
2019-06-01T20:56:42.406Z,80.26
2019-06-01T20:59:17.221Z,80.46
2019-06-01T21:01:47.503Z,80.77
2019-06-01T21:04:22.292Z,80.41
2019-06-01T21:06:53.707Z,80.64
2019-06-01T21:09:24.566Z,81.51
2019-06-01T21:11:55.591Z,80.70
2019-06-01T21:14:26.552Z,80.38
2019-06-01T21:16:58.267Z,80.80
2019-06-01T21:19:29.734Z,79.30
2019-06-01T21:22:00.662Z,80.83
2019-06-01T21:24:33.128Z,78.64
2019-06-01T21:27:06.055Z,76.59
2019-06-01T21:29:37.226Z,79.11
2019-06-01T21:32:09.106Z,79.37
2019-06-01T21:34:40.060Z,78.06
2019-06-01T21:37:11.563Z,80.34
2019-06-01T21:39:44.351Z,77.81
2019-06-01T21:42:15.528Z,80.23
2019-06-01T21:44:46.817Z,82.24
2019-06-01T21:47:17.970Z,80.82
2019-06-01T21:49:49.025Z,83.18
2019-06-01T21:52:20.054Z,82.52
2019-06-01T21:54:50.782Z,84.76
2019-06-01T21:57:22.381Z,85.59
2019-06-01T21:59:53.738Z,82.25
2019-06-01T22:02:25.106Z,81.90
2019-06-01T22:04:57.097Z,81.92
2019-06-01T22:07:28.139Z,84.38
2019-06-01T22:10:01.817Z,85.17
2019-06-01T22:12:32.793Z,86.70
2019-06-01T22:15:04.260Z,82.29
2019-06-01T22:17:37.057Z,83.94
2019-06-01T22:20:08.252Z,82.55
2019-06-01T22:22:39.235Z,84.61
2019-06-01T22:25:10.947Z,89.49
2019-06-01T22:27:41.825Z,88.00
2019-06-01T22:30:13.714Z,90.19
2019-06-01T22:32:45.283Z,89.98
2019-06-01T22:35:16.669Z,89.87
2019-06-01T22:37:48.806Z,89.97
2019-06-01T22:40:20.855Z,90.58
2019-06-01T22:42:51.722Z,91.61
2019-06-01T22:45:22.594Z,92.30
2019-06-01T22:47:53.679Z,92.69
2019-06-01T22:50:24.837Z,92.98
2019-06-01T22:52:56.153Z,93.44
2019-06-01T22:55:28.344Z,93.36
2019-06-01T22:57:59.662Z,94.54
2019-06-01T23:00:31.990Z,94.57
2019-06-01T23:03:02.912Z,94.67
2019-06-01T23:05:33.931Z,94.36
2019-06-01T23:08:05.479Z,94.67
2019-06-01T23:10:36.624Z,94.64
2019-06-01T23:13:07.745Z,94.83
2019-06-01T23:15:38.956Z,95.48
2019-06-01T23:18:12.886Z,95.58
2019-06-01T23:20:43.673Z,95.62
2019-06-01T23:23:14.692Z,97.36
2019-06-01T23:25:45.769Z,97.61
2019-06-01T23:28:16.947Z,97.44
2019-06-01T23:30:47.849Z,97.64
2019-06-01T23:33:18.681Z,98.31
2019-06-01T23:35:49.515Z,98.53
2019-06-01T23:38:20.437Z,98.35
2019-06-01T23:40:51.886Z,98.77
2019-06-01T23:43:22.814Z,98.96
2019-06-01T23:45:53.977Z,99.05
2019-06-01T23:48:25.153Z,99.42
2019-06-01T23:50:57.255Z,99.13
2019-06-01T23:53:29.492Z,99.06
2019-06-01T23:56:00.403Z,99.27
2019-06-01T23:58:32.516Z,97.65
